SCOT35 YBOK-YBOK
Flight info
| Callsign | SCOT35 |
|---|---|
| Flight time | 0h 0m |
| Altitude | 4500 |
| Route | DCT OK OK DCT |
| Aircraft | EC35/L-SDFGRY/C |
Departure
| Time | 2026-04-14 09:13 |
|---|---|
| Airport | Oakey Army Aviation Centre (YBOK) |
Arrival
| Time | 2026-04-14 09:14 |
|---|---|
| Airport | Oakey Army Aviation Centre (YBOK) |
| Time | Latitude | Longitude | Altitude | Speed | Heading |
|---|---|---|---|---|---|
| 2026-04-14 09:00 | -27.41367 | 151.73479 | 1340 ft | 0 kts | 146° |
| 2026-04-14 09:09 | -27.41367 | 151.73480 | 1346 ft | 2 kts | 104° |
| 2026-04-14 09:09 | -27.41356 | 151.73521 | 1352 ft | 11 kts | 108° |
| 2026-04-14 09:09 | -27.41378 | 151.73650 | 1363 ft | 21 kts | 96° |
| 2026-04-14 09:10 | -27.41332 | 151.73749 | 1360 ft | 16 kts | 14° |
| 2026-04-14 09:10 | -27.41267 | 151.73724 | 1351 ft | 7 kts | 306° |
| 2026-04-14 09:10 | -27.41258 | 151.73692 | 1355 ft | 5 kts | 286° |
| 2026-04-14 09:10 | -27.41246 | 151.73624 | 1355 ft | 14 kts | 287° |
| 2026-04-14 09:11 | -27.41234 | 151.73550 | 1363 ft | 6 kts | 288° |
| 2026-04-14 09:11 | -27.41226 | 151.73491 | 1367 ft | 6 kts | 290° |
| 2026-04-14 09:11 | -27.41154 | 151.73475 | 1371 ft | 16 kts | 21° |
| 2026-04-14 09:11 | -27.41057 | 151.73469 | 1377 ft | 19 kts | 286° |
| 2026-04-14 09:12 | -27.40995 | 151.73075 | 1407 ft | 76 kts | 281° |
| 2026-04-14 09:12 | -27.40903 | 151.72449 | 1535 ft | 87 kts | 283° |
| 2026-04-14 09:12 | -27.40768 | 151.71764 | 1694 ft | 92 kts | 297° |
| 2026-04-14 09:12 | -27.40255 | 151.71600 | 1811 ft | 96 kts | 55° |
| 2026-04-14 09:13 | -27.40271 | 151.72344 | 1822 ft | 103 kts | 102° |
| 2026-04-14 09:13 | -27.40433 | 151.73144 | 1850 ft | 104 kts | 97° |
| 2026-04-14 09:13 | -27.40549 | 151.73925 | 1905 ft | 102 kts | 94° |
| 2026-04-14 09:13 | -27.40641 | 151.74721 | 1961 ft | 102 kts | 106° |
| 2026-04-14 09:14 | -27.41193 | 151.74725 | 1825 ft | 116 kts | 253° |
| 2026-04-14 09:14 | -27.41119 | 151.73897 | 1533 ft | 92 kts | 280° |
| 2026-04-14 09:14 | -27.41054 | 151.73447 | 1408 ft | 29 kts | 274° |
| 2026-04-14 09:14 | -27.41048 | 151.73384 | 1355 ft | 7 kts | 286° |
| 2026-04-14 09:15 | -27.41023 | 151.73223 | 1407 ft | 53 kts | 281° |
| 2026-04-14 09:15 | -27.40933 | 151.72630 | 1475 ft | 83 kts | 278° |
| 2026-04-14 09:15 | -27.40830 | 151.72015 | 1731 ft | 78 kts | 279° |
| 2026-04-14 09:15 | -27.41060 | 151.71559 | 1962 ft | 81 kts | 180° |
| 2026-04-14 09:16 | -27.41533 | 151.71904 | 2011 ft | 95 kts | 107° |
| 2026-04-14 09:16 | -27.41709 | 151.72663 | 1994 ft | 104 kts | 95° |
| 2026-04-14 09:16 | -27.41842 | 151.73475 | 1999 ft | 106 kts | 93° |
| 2026-04-14 09:16 | -27.41950 | 151.74290 | 2051 ft | 104 kts | 91° |
| 2026-04-14 09:17 | -27.41623 | 151.74833 | 2029 ft | 97 kts | 351° |
| 2026-04-14 09:17 | -27.41183 | 151.74258 | 1616 ft | 116 kts | 279° |
| 2026-04-14 09:17 | -27.41073 | 151.73569 | 1420 ft | 58 kts | 276° |
| 2026-04-14 09:17 | -27.41033 | 151.73295 | 1351 ft | 13 kts | 279° |
| 2026-04-14 09:18 | -27.41038 | 151.73301 | 1354 ft | 2 kts | 275° |
| 2026-04-14 09:18 | -27.41000 | 151.73106 | 1444 ft | 54 kts | 284° |
| 2026-04-14 09:18 | -27.40915 | 151.72539 | 1539 ft | 81 kts | 278° |
| 2026-04-14 09:18 | -27.40818 | 151.71866 | 1683 ft | 90 kts | 279° |
| 2026-04-14 09:19 | -27.40684 | 151.71176 | 1871 ft | 91 kts | 303° |
| 2026-04-14 09:19 | -27.40170 | 151.70743 | 1950 ft | 99 kts | 340° |
| 2026-04-14 09:19 | -27.39503 | 151.70589 | 2011 ft | 103 kts | 4° |
| 2026-04-14 09:19 | -27.38784 | 151.70643 | 2065 ft | 103 kts | 6° |
| 2026-04-14 09:20 | -27.38051 | 151.70690 | 2082 ft | 106 kts | 6° |
| 2026-04-14 09:20 | -27.37293 | 151.70734 | 2036 ft | 113 kts | 5° |
| 2026-04-14 09:20 | -27.36494 | 151.70786 | 2013 ft | 114 kts | 6° |
| 2026-04-14 09:20 | -27.35717 | 151.70837 | 2051 ft | 111 kts | 5° |
| 2026-04-14 09:21 | -27.34973 | 151.70871 | 2176 ft | 102 kts | 6° |
| 2026-04-14 09:21 | -27.34269 | 151.70903 | 2284 ft | 99 kts | 12° |
| 2026-04-14 09:21 | -27.33760 | 151.71378 | 2287 ft | 104 kts | 68° |
| 2026-04-14 09:21 | -27.33623 | 151.72188 | 2251 ft | 108 kts | 80° |
| 2026-04-14 09:22 | -27.33567 | 151.72979 | 2434 ft | 94 kts | 82° |
| 2026-04-14 09:22 | -27.33536 | 151.73732 | 2481 ft | 99 kts | 83° |
| 2026-04-14 09:22 | -27.33565 | 151.74552 | 2419 ft | 110 kts | 94° |
| 2026-04-14 09:22 | -27.33773 | 151.75381 | 2433 ft | 108 kts | 104° |
| 2026-04-14 09:23 | -27.34035 | 151.76094 | 2664 ft | 91 kts | 114° |
| 2026-04-14 09:23 | -27.34419 | 151.76727 | 2670 ft | 103 kts | 118° |
| 2026-04-14 09:23 | -27.34833 | 151.77426 | 2674 ft | 108 kts | 117° |
| 2026-04-14 09:23 | -27.35236 | 151.78105 | 2779 ft | 102 kts | 118° |
| 2026-04-14 09:24 | -27.35742 | 151.78753 | 2649 ft | 118 kts | 139° |
| 2026-04-14 09:24 | -27.36449 | 151.79259 | 2608 ft | 118 kts | 142° |
| 2026-04-14 09:24 | -27.37211 | 151.79630 | 2532 ft | 123 kts | 159° |
| 2026-04-14 09:24 | -27.38081 | 151.79771 | 2387 ft | 128 kts | 170° |
| 2026-04-14 09:25 | -27.38927 | 151.79827 | 2478 ft | 118 kts | 172° |
| 2026-04-14 09:25 | -27.39733 | 151.79827 | 2510 ft | 117 kts | 178° |
| 2026-04-14 09:25 | -27.40538 | 151.79775 | 2585 ft | 113 kts | 182° |
| 2026-04-14 09:25 | -27.41284 | 151.79685 | 2806 ft | 98 kts | 187° |
| 2026-04-14 09:26 | -27.41838 | 151.79523 | 3166 ft | 77 kts | 204° |
| 2026-04-14 09:26 | -27.42423 | 151.79213 | 3092 ft | 106 kts | 210° |
| 2026-04-14 09:26 | -27.43119 | 151.78764 | 2955 ft | 123 kts | 212° |
| 2026-04-14 09:26 | -27.43864 | 151.78229 | 2813 ft | 131 kts | 215° |
| 2026-04-14 09:27 | -27.44593 | 151.77610 | 2732 ft | 131 kts | 220° |
| 2026-04-14 09:27 | -27.45187 | 151.76879 | 2774 ft | 123 kts | 235° |
| 2026-04-14 09:27 | -27.45603 | 151.76060 | 2842 ft | 118 kts | 246° |
| 2026-04-14 09:27 | -27.45911 | 151.75208 | 2871 ft | 118 kts | 258° |
| 2026-04-14 09:28 | -27.45997 | 151.74300 | 2870 ft | 119 kts | 277° |
| 2026-04-14 09:28 | -27.45875 | 151.73351 | 2793 ft | 125 kts | 286° |
| 2026-04-14 09:28 | -27.45689 | 151.72400 | 2745 ft | 125 kts | 290° |
| 2026-04-14 09:28 | -27.45434 | 151.71460 | 2670 ft | 126 kts | 295° |
| 2026-04-14 09:29 | -27.45009 | 151.70635 | 2724 ft | 117 kts | 315° |
| 2026-04-14 09:29 | -27.44454 | 151.70002 | 2797 ft | 111 kts | 323° |
| 2026-04-14 09:29 | -27.43849 | 151.69424 | 2733 ft | 118 kts | 327° |
| 2026-04-14 09:29 | -27.43201 | 151.68847 | 2723 ft | 116 kts | 329° |
| 2026-04-14 09:30 | -27.42519 | 151.68459 | 2772 ft | 107 kts | 15° |
| 2026-04-14 09:30 | -27.41910 | 151.69022 | 2517 ft | 122 kts | 52° |
| 2026-04-14 09:30 | -27.41578 | 151.69908 | 2286 ft | 124 kts | 85° |
| 2026-04-14 09:30 | -27.41616 | 151.70844 | 2204 ft | 117 kts | 103° |
| 2026-04-14 09:31 | -27.41757 | 151.71732 | 2148 ft | 117 kts | 100° |
| 2026-04-14 09:31 | -27.41922 | 151.72627 | 2081 ft | 116 kts | 98° |
| 2026-04-14 09:31 | -27.42096 | 151.73512 | 2011 ft | 116 kts | 95° |
| 2026-04-14 09:31 | -27.42098 | 151.74373 | 2075 ft | 105 kts | 55° |
| 2026-04-14 09:32 | -27.41543 | 151.74613 | 1783 ft | 83 kts | 337° |
| 2026-04-14 09:32 | -27.41189 | 151.74175 | 1577 ft | 79 kts | 283° |
| 2026-04-14 09:32 | -27.41076 | 151.73557 | 1359 ft | 2 kts | 291° |
| 2026-04-14 09:33 | -27.41074 | 151.73554 | 1350 ft | 0 kts | 286° |
| 2026-04-14 09:33 | -27.41073 | 151.73549 | 1342 ft | 0 kts | 288° |
| 2026-04-14 09:33 | -27.41074 | 151.73544 | 1358 ft | 1 kts | 282° |
| 2026-04-14 09:34 | -27.41075 | 151.73518 | 1424 ft | 23 kts | 281° |
| 2026-04-14 09:34 | -27.41018 | 151.73170 | 1572 ft | 69 kts | 279° |
| 2026-04-14 09:34 | -27.40921 | 151.72585 | 1803 ft | 76 kts | 284° |
| 2026-04-14 09:34 | -27.40783 | 151.72030 | 2083 ft | 79 kts | 329° |
| 2026-04-14 09:35 | -27.40288 | 151.72241 | 2028 ft | 102 kts | 74° |
| 2026-04-14 09:35 | -27.40372 | 151.73077 | 1999 ft | 109 kts | 97° |
| 2026-04-14 09:35 | -27.40480 | 151.73911 | 2138 ft | 99 kts | 93° |
| 2026-04-14 09:35 | -27.40511 | 151.74556 | 2551 ft | 66 kts | 89° |
| 2026-04-14 09:36 | -27.40701 | 151.74983 | 2688 ft | 83 kts | 161° |
| 2026-04-14 09:36 | -27.41142 | 151.74641 | 1987 ft | 94 kts | 274° |
| 2026-04-14 09:36 | -27.41107 | 151.73942 | 1551 ft | 81 kts | 282° |
| 2026-04-14 09:36 | -27.41046 | 151.73390 | 1408 ft | 49 kts | 285° |
| 2026-04-14 09:37 | -27.40994 | 151.73067 | 1414 ft | 62 kts | 289° |
| 2026-04-14 09:37 | -27.40908 | 151.72479 | 1496 ft | 85 kts | 281° |
| 2026-04-14 09:37 | -27.40824 | 151.71865 | 1794 ft | 76 kts | 295° |
| 2026-04-14 09:37 | -27.40370 | 151.71754 | 1921 ft | 86 kts | 38° |
| 2026-04-14 09:38 | -27.40219 | 151.72421 | 1873 ft | 104 kts | 100° |
| 2026-04-14 09:38 | -27.40360 | 151.73246 | 1820 ft | 111 kts | 96° |
| 2026-04-14 09:38 | -27.40452 | 151.74120 | 1771 ft | 113 kts | 94° |
| 2026-04-14 09:38 | -27.40713 | 151.74895 | 1792 ft | 118 kts | 162° |
| 2026-04-14 09:39 | -27.41176 | 151.74311 | 1605 ft | 120 kts | 287° |
| 2026-04-14 09:39 | -27.41073 | 151.73570 | 1412 ft | 65 kts | 287° |
| 2026-04-14 09:39 | -27.41020 | 151.73227 | 1362 ft | 29 kts | 281° |
| 2026-04-14 09:39 | -27.40998 | 151.73086 | 1349 ft | 7 kts | 275° |
| 2026-04-14 09:40 | -27.40993 | 151.73073 | 1360 ft | 1 kts | 103° |
| 2026-04-14 09:40 | -27.41010 | 151.73155 | 1368 ft | 22 kts | 96° |
| 2026-04-14 09:40 | -27.41038 | 151.73336 | 1367 ft | 25 kts | 94° |
| 2026-04-14 09:40 | -27.41065 | 151.73479 | 1357 ft | 11 kts | 136° |
| 2026-04-14 09:41 | -27.41109 | 151.73484 | 1353 ft | 7 kts | 192° |
| 2026-04-14 09:41 | -27.41179 | 151.73467 | 1356 ft | 10 kts | 183° |
| 2026-04-14 09:41 | -27.41232 | 151.73540 | 1362 ft | 25 kts | 107° |
| 2026-04-14 09:41 | -27.41254 | 151.73684 | 1356 ft | 5 kts | 92° |
| 2026-04-14 09:42 | -27.41257 | 151.73720 | 1363 ft | 7 kts | 105° |
| 2026-04-14 09:42 | -27.41313 | 151.73754 | 1352 ft | 12 kts | 190° |
| 2026-04-14 09:42 | -27.41368 | 151.73742 | 1353 ft | 9 kts | 192° |
| 2026-04-14 09:42 | -27.41408 | 151.73760 | 1358 ft | 7 kts | 96° |
| 2026-04-14 09:43 | -27.41409 | 151.73765 | 1349 ft | 2 kts | 103° |
| 2026-04-14 09:43 | -27.41410 | 151.73770 | 1345 ft | 0 kts | 102° |
| 2026-04-14 10:00 | -27.41412 | 151.73769 | 1347 ft | 3 kts | 321° |
| 2026-04-14 10:01 | -27.41412 | 151.73759 | 1349 ft | 2 kts | 286° |
| 2026-04-14 10:01 | -27.41393 | 151.73743 | 1356 ft | 7 kts | 357° |
| 2026-04-14 10:01 | -27.41372 | 151.73740 | 1349 ft | 1 kts | 13° |
| 2026-04-14 10:01 | -27.41367 | 151.73743 | 1349 ft | 0 kts | 15° |
| 2026-04-14 10:02 | -27.41355 | 151.73746 | 1350 ft | 2 kts | 12° |
| 2026-04-14 10:02 | -27.41344 | 151.73749 | 1349 ft | 0 kts | 13° |
| 2026-04-14 10:02 | -27.41326 | 151.73752 | 1355 ft | 5 kts | 14° |
| 2026-04-14 10:02 | -27.41288 | 151.73762 | 1370 ft | 7 kts | 355° |
| 2026-04-14 10:03 | -27.41255 | 151.73677 | 1365 ft | 19 kts | 284° |
| 2026-04-14 10:03 | -27.41232 | 151.73524 | 1361 ft | 21 kts | 291° |
| 2026-04-14 10:03 | -27.41152 | 151.73476 | 1359 ft | 21 kts | 23° |
| 2026-04-14 10:03 | -27.41057 | 151.73489 | 1364 ft | 14 kts | 286° |
| 2026-04-14 10:04 | -27.41013 | 151.73183 | 1477 ft | 68 kts | 280° |
| 2026-04-14 10:04 | -27.40925 | 151.72568 | 1617 ft | 90 kts | 282° |
| 2026-04-14 10:04 | -27.40800 | 151.71881 | 1867 ft | 89 kts | 314° |
| 2026-04-14 10:04 | -27.40283 | 151.72023 | 1892 ft | 97 kts | 77° |
| 2026-04-14 10:05 | -27.40313 | 151.72832 | 1892 ft | 104 kts | 90° |
| 2026-04-14 10:05 | -27.40390 | 151.73635 | 1989 ft | 101 kts | 92° |
| 2026-04-14 10:05 | -27.40491 | 151.74396 | 1998 ft | 99 kts | 120° |
| 2026-04-14 10:05 | -27.41083 | 151.74254 | 1618 ft | 118 kts | 255° |
| 2026-04-14 10:06 | -27.41065 | 151.73527 | 1421 ft | 55 kts | 282° |
| 2026-04-14 10:06 | -27.41034 | 151.73319 | 1387 ft | 20 kts | 281° |
| 2026-04-14 10:06 | -27.41009 | 151.73147 | 1370 ft | 21 kts | 281° |
| 2026-04-14 10:06 | -27.40994 | 151.73049 | 1365 ft | 10 kts | 278° |
| 2026-04-14 10:07 | -27.40979 | 151.72939 | 1362 ft | 17 kts | 282° |
| 2026-04-14 10:07 | -27.41051 | 151.72840 | 1354 ft | 23 kts | 187° |
| 2026-04-14 10:07 | -27.41128 | 151.72903 | 1378 ft | 20 kts | 185° |
| 2026-04-14 10:07 | -27.41149 | 151.73060 | 1405 ft | 21 kts | 191° |
| 2026-04-14 10:08 | -27.41176 | 151.73213 | 1419 ft | 21 kts | 191° |
| 2026-04-14 10:08 | -27.41202 | 151.73374 | 1417 ft | 23 kts | 192° |
| 2026-04-14 10:08 | -27.41151 | 151.73483 | 1388 ft | 31 kts | 25° |
| 2026-04-14 10:08 | -27.40990 | 151.73656 | 1361 ft | 31 kts | 67° |
| 2026-04-14 10:09 | -27.40797 | 151.73736 | 1361 ft | 26 kts | 349° |
| 2026-04-14 10:09 | -27.40661 | 151.73714 | 1363 ft | 14 kts | 318° |
| 2026-04-14 10:09 | -27.40645 | 151.73678 | 1350 ft | 2 kts | 289° |
| 2026-04-14 10:09 | -27.40647 | 151.73674 | 1349 ft | 1 kts | 283° |
| 2026-04-14 10:10 | -27.40647 | 151.73671 | 1346 ft | 1 kts | 279° |
| 2026-04-14 10:10 | -27.40646 | 151.73663 | 1364 ft | 2 kts | 277° |
| 2026-04-14 10:10 | -27.40646 | 151.73659 | 1363 ft | 1 kts | 276° |
| 2026-04-14 10:10 | -27.40646 | 151.73655 | 1364 ft | 1 kts | 266° |
| 2026-04-14 10:11 | -27.40647 | 151.73651 | 1362 ft | 0 kts | 265° |
| 2026-04-14 10:11 | -27.40644 | 151.73637 | 1363 ft | 0 kts | 281° |
| 2026-04-14 10:11 | -27.40607 | 151.73405 | 1451 ft | 61 kts | 290° |
| 2026-04-14 10:12 | -27.40492 | 151.72827 | 1595 ft | 79 kts | 289° |
| 2026-04-14 10:12 | -27.40191 | 151.72410 | 1839 ft | 86 kts | 7° |
| 2026-04-14 10:12 | -27.39861 | 151.72922 | 1801 ft | 101 kts | 103° |
| 2026-04-14 10:12 | -27.40022 | 151.73719 | 1811 ft | 108 kts | 97° |
| 2026-04-14 10:13 | -27.40302 | 151.74407 | 1836 ft | 100 kts | 178° |
| 2026-04-14 10:13 | -27.40657 | 151.74018 | 1494 ft | 62 kts | 282° |
| 2026-04-14 10:13 | -27.40644 | 151.73668 | 1414 ft | 26 kts | 270° |
| 2026-04-14 10:13 | -27.40630 | 151.73573 | 1345 ft | 0 kts | 283° |
| 2026-04-14 10:14 | -27.40630 | 151.73557 | 1358 ft | 11 kts | 287° |
| 2026-04-14 10:14 | -27.40602 | 151.73361 | 1518 ft | 40 kts | 276° |
| 2026-04-14 10:14 | -27.40563 | 151.72947 | 1702 ft | 70 kts | 274° |
| 2026-04-14 10:14 | -27.40190 | 151.72630 | 1784 ft | 91 kts | 29° |
| 2026-04-14 10:15 | -27.39928 | 151.73253 | 1678 ft | 83 kts | 115° |
| 2026-04-14 10:15 | -27.40235 | 151.73678 | 1436 ft | 60 kts | 147° |
| 2026-04-14 10:15 | -27.40661 | 151.73999 | 1415 ft | 92 kts | 147° |
| 2026-04-14 10:15 | -27.41191 | 151.74408 | 1636 ft | 85 kts | 145° |
| 2026-04-14 10:16 | -27.41388 | 151.74927 | 1785 ft | 97 kts | 44° |
| 2026-04-14 10:16 | -27.40722 | 151.74848 | 1796 ft | 106 kts | 336° |
| 2026-04-14 10:16 | -27.40086 | 151.74444 | 1850 ft | 107 kts | 338° |
| 2026-04-14 10:16 | -27.39458 | 151.74006 | 1931 ft | 104 kts | 308° |
| 2026-04-14 10:17 | -27.39406 | 151.73244 | 2002 ft | 105 kts | 248° |
| 2026-04-14 10:17 | -27.39725 | 151.72468 | 1973 ft | 114 kts | 235° |
| 2026-04-14 10:17 | -27.40255 | 151.71866 | 2047 ft | 98 kts | 178° |
| 2026-04-14 10:17 | -27.40729 | 151.72169 | 1743 ft | 92 kts | 115° |
| 2026-04-14 10:18 | -27.40615 | 151.73073 | 1395 ft | 25 kts | 53° |
| 2026-04-14 10:18 | -27.40589 | 151.73112 | 1350 ft | 0 kts | 44° |
| 2026-04-14 10:18 | -27.40589 | 151.73113 | 1345 ft | 0 kts | 55° |
| 2026-04-14 10:19 | -27.40476 | 151.73300 | 1370 ft | 66 kts | 59° |
| 2026-04-14 10:20 | -27.40225 | 151.73702 | 1386 ft | 35 kts | 54° |
| 2026-04-14 10:20 | -27.40228 | 151.73678 | 1379 ft | 43 kts | 236° |
| 2026-04-14 10:20 | -27.40498 | 151.73246 | 1374 ft | 61 kts | 239° |
| 2026-04-14 10:20 | -27.40600 | 151.73090 | 1365 ft | 6 kts | 93° |
| 2026-04-14 10:21 | -27.40431 | 151.73385 | 1393 ft | 78 kts | 56° |
| 2026-04-14 10:21 | -27.40083 | 151.73924 | 1544 ft | 81 kts | 48° |
| 2026-04-14 10:21 | -27.39716 | 151.74269 | 1830 ft | 71 kts | 343° |
| 2026-04-14 10:21 | -27.39588 | 151.73722 | 1879 ft | 92 kts | 242° |
| 2026-04-14 10:22 | -27.39936 | 151.73024 | 1851 ft | 109 kts | 237° |
| 2026-04-14 10:22 | -27.40352 | 151.72296 | 1932 ft | 107 kts | 213° |
| 2026-04-14 10:22 | -27.40791 | 151.72572 | 1726 ft | 80 kts | 79° |
| 2026-04-14 10:22 | -27.40647 | 151.73021 | 1440 ft | 39 kts | 51° |
| 2026-04-14 10:23 | -27.40594 | 151.73110 | 1352 ft | 2 kts | 56° |
| 2026-04-14 10:23 | -27.40592 | 151.73109 | 1346 ft | 0 kts | 54° |
| 2026-04-14 10:25 | -27.40588 | 151.73115 | 1376 ft | 4 kts | 54° |
| 2026-04-14 10:25 | -27.40508 | 151.73243 | 1480 ft | 56 kts | 53° |
| 2026-04-14 10:25 | -27.40221 | 151.73710 | 1626 ft | 79 kts | 54° |
| 2026-04-14 10:25 | -27.40022 | 151.74261 | 1840 ft | 81 kts | 105° |
| 2026-04-14 10:26 | -27.40513 | 151.74687 | 1901 ft | 98 kts | 156° |
| 2026-04-14 10:26 | -27.41214 | 151.74790 | 2002 ft | 104 kts | 172° |
| 2026-04-14 10:26 | -27.41931 | 151.74738 | 2103 ft | 108 kts | 191° |
| 2026-04-14 10:26 | -27.42535 | 151.74254 | 2197 ft | 110 kts | 255° |
| 2026-04-14 10:27 | -27.42489 | 151.73364 | 2121 ft | 119 kts | 284° |
| 2026-04-14 10:27 | -27.42237 | 151.72477 | 2134 ft | 117 kts | 327° |
| 2026-04-14 10:27 | -27.41439 | 151.72319 | 1989 ft | 121 kts | 11° |
| 2026-04-14 10:27 | -27.40898 | 151.72625 | 1605 ft | 65 kts | 54° |
| 2026-04-14 10:28 | -27.40676 | 151.72977 | 1403 ft | 39 kts | 53° |
| 2026-04-14 10:28 | -27.40638 | 151.73039 | 1355 ft | 2 kts | 52° |
| 2026-04-14 10:28 | -27.40596 | 151.73100 | 1472 ft | 27 kts | 58° |
| 2026-04-14 10:28 | -27.40373 | 151.73461 | 1575 ft | 73 kts | 48° |
| 2026-04-14 10:29 | -27.40059 | 151.73955 | 1721 ft | 83 kts | 49° |
| 2026-04-14 10:29 | -27.39821 | 151.74593 | 1756 ft | 97 kts | 96° |
| 2026-04-14 10:29 | -27.40140 | 151.75145 | 1979 ft | 86 kts | 186° |
| 2026-04-14 10:29 | -27.40431 | 151.74663 | 2221 ft | 79 kts | 298° |
| 2026-04-14 10:30 | -27.40247 | 151.74014 | 2306 ft | 93 kts | 283° |
| 2026-04-14 10:30 | -27.40163 | 151.73298 | 2500 ft | 91 kts | 272° |
| 2026-04-14 10:30 | -27.40121 | 151.72707 | 2746 ft | 37 kts | 149° |
| 2026-04-14 10:30 | -27.40396 | 151.72802 | 1936 ft | 65 kts | 123° |
| 2026-04-14 10:31 | -27.40535 | 151.73160 | 1476 ft | 33 kts | 78° |
| 2026-04-14 10:31 | -27.40458 | 151.73327 | 1368 ft | 11 kts | 55° |
| 2026-04-14 10:31 | -27.40452 | 151.73333 | 1349 ft | 0 kts | 59° |
| 2026-04-14 10:34 | -27.40446 | 151.73342 | 1372 ft | 4 kts | 53° |
| 2026-04-14 10:34 | -27.40442 | 151.73353 | 1411 ft | 4 kts | 207° |
| 2026-04-14 10:34 | -27.40427 | 151.73389 | 1469 ft | 33 kts | 65° |
| 2026-04-14 10:35 | -27.40182 | 151.73775 | 1546 ft | 74 kts | 50° |
| 2026-04-14 10:35 | -27.39825 | 151.74105 | 1826 ft | 69 kts | 354° |
| 2026-04-14 10:35 | -27.39607 | 151.73628 | 1931 ft | 88 kts | 248° |
| 2026-04-14 10:35 | -27.39979 | 151.72977 | 1943 ft | 104 kts | 237° |
| 2026-04-14 10:36 | -27.40392 | 151.72336 | 1863 ft | 91 kts | 220° |
| 2026-04-14 10:36 | -27.40814 | 151.72288 | 1575 ft | 56 kts | 114° |
| 2026-04-14 10:36 | -27.40935 | 151.72665 | 1384 ft | 40 kts | 102° |
| 2026-04-14 10:36 | -27.40966 | 151.72829 | 1348 ft | 4 kts | 118° |
| 2026-04-14 10:37 | -27.40964 | 151.72829 | 1349 ft | 2 kts | 126° |
| 2026-04-14 10:37 | -27.40976 | 151.72903 | 1378 ft | 16 kts | 104° |
| 2026-04-14 10:37 | -27.41005 | 151.73098 | 1384 ft | 33 kts | 101° |
| 2026-04-14 10:37 | -27.41036 | 151.73328 | 1394 ft | 24 kts | 97° |
| 2026-04-14 10:38 | -27.41061 | 151.73486 | 1395 ft | 15 kts | 161° |
| 2026-04-14 10:38 | -27.41180 | 151.73468 | 1371 ft | 22 kts | 187° |
| 2026-04-14 10:38 | -27.41249 | 151.73649 | 1372 ft | 32 kts | 104° |
| 2026-04-14 10:38 | -27.41281 | 151.73755 | 1355 ft | 4 kts | 169° |
| 2026-04-14 10:39 | -27.41324 | 151.73751 | 1355 ft | 9 kts | 190° |
| 2026-04-14 10:39 | -27.41358 | 151.73777 | 1350 ft | 3 kts | 98° |
| 2026-04-14 10:39 | -27.41345 | 151.73781 | 1349 ft | 0 kts | 102° |
| 2026-04-14 10:39 | -27.41346 | 151.73782 | 1349 ft | 0 kts | 99° |